Time;durP1;ratioP1;P1;durP2;ratioP2;P2;SDS_P1;SDS_P2;PMS_P1;PMS_P2;Temp;Humidity;BMP_temperature;BMP_pressure;BME280_temperature;BME280_humidity;BME280_pressure;Samples;Min_cycle;Max_cycle;Signal;HPM_P1;HPM_P2
2022/06/04 00:01:27;;;;;;;;;;;;;;;10.20;100.00;100066.03;5158413;27;20404;-48
2022/06/04 00:03:53;;;;;;;;;;;;;;;10.15;100.00;100056.06;5158426;27;20293;-47
2022/06/04 00:06:19;;;;;;;;;;;;;;;10.16;100.00;100057.66;5158227;27;19922;-47
2022/06/04 00:08:45;;;;;;;;;;;;;;;10.14;100.00;100046.25;5158312;27;19929;-46
2022/06/04 00:16:40;;;;;;;;;;;;;;;10.08;100.00;100031.19;5158395;27;20442;-48
2022/06/04 00:19:06;;;;;;;;;;;;;;;10.05;100.00;100040.88;5158225;27;19923;-48
2022/06/04 00:21:32;;;;;;;;;;;;;;;10.03;100.00;100034.94;5158489;27;19984;-46
2022/06/04 00:23:58;;;;;;;;;;;;;;;9.99;100.00;100036.75;5158147;27;19945;-51
2022/06/04 00:26:24;;;;;;;;;;;;;;;10.03;100.00;100032.22;5158081;27;20390;-47
2022/06/04 00:28:50;;;;;;;;;;;;;;;9.98;100.00;100039.84;5158102;27;19923;-47
2022/06/04 00:31:17;;;;;;;;;;;;;;;9.95;100.00;100038.56;5158045;27;19923;-47
2022/06/04 00:33:44;;;;;;;;;;;;;;;9.93;100.00;100037.31;5158164;27;19923;-49
2022/06/04 00:36:10;;;;;;;;;;;;;;;9.92;100.00;100028.28;5157949;27;19923;-49
2022/06/04 00:38:36;;;;;;;;;;;;;;;9.95;100.00;100024.06;5158277;27;19929;-47
2022/06/04 00:41:17;;;;;;;;;;;;;;;9.91;100.00;100023.97;5157895;27;19922;-47
2022/06/04 00:44:01;;;;;;;;;;;;;;;9.92;100.00;100020.06;5158006;27;19922;-49
2022/06/04 00:46:47;;;;;;;;;;;;;;;9.89;100.00;100018.00;5158052;27;19923;-47
2022/06/04 00:49:14;;;;;;;;;;;;;;;9.83;100.00;100016.63;5157975;27;19927;-47
2022/06/04 00:51:42;;;;;;;;;;;;;;;9.83;100.00;100022.09;5158069;27;19923;-47
2022/06/04 00:54:09;;;;;;;;;;;;;;;9.83;100.00;100011.97;5156024;27;20017;-46
2022/06/04 00:56:38;;;;;;;;;;;;;;;9.81;100.00;100016.97;5154514;27;19923;-46
2022/06/04 00:59:11;;;;;;;;;;;;;;;9.73;100.00;100015.13;5154693;27;19923;-47
2022/06/04 01:01:42;;;;;;;;;;;;;;;9.69;100.00;100005.19;5154371;27;20345;-46
2022/06/04 01:04:47;;;;;;;;;;;;;;;9.71;100.00;100008.41;5154227;27;19945;-46
2022/06/04 01:07:06;;;;;;;;;;;;;;;9.69;100.00;100005.19;5154028;27;20010;-50
2022/06/04 01:09:47;;;;;;;;;;;;;;;9.66;100.00;100006.66;5154594;27;19927;-50
2022/06/04 01:12:22;;;;;;;;;;;;;;;9.67;100.00;100000.06;5154148;27;19965;-47
2022/06/04 01:14:56;;;;;;;;;;;;;;;9.66;100.00;100012.13;5154641;27;20433;-51
2022/06/04 01:17:28;;;;;;;;;;;;;;;9.68;100.00;100011.81;5153974;27;20358;-49
2022/06/04 01:20:00;;;;;;;;;;;;;;;9.67;100.00;100011.00;5154178;27;19983;-48
2022/06/04 01:22:42;;;;;;;;;;;;;;;9.64;100.00;100004.28;5153844;27;19923;-48
2022/06/04 01:25:17;;;;;;;;;;;;;;;9.59;100.00;100007.19;5153888;27;19923;-50
2022/06/04 01:27:45;;;;;;;;;;;;;;;9.61;100.00;100001.41;5153932;27;19933;-48
2022/06/04 01:30:16;;;;;;;;;;;;;;;9.65;100.00;99985.91;5153818;27;20351;-49
2022/06/04 01:32:44;;;;;;;;;;;;;;;9.66;100.00;99984.75;5153976;27;19930;-46
2022/06/04 01:35:13;;;;;;;;;;;;;;;9.62;100.00;99997.53;5153720;27;19922;-49
2022/06/04 01:37:44;;;;;;;;;;;;;;;9.57;100.00;100003.22;5154142;27;19923;-50
2022/06/04 01:42:58;;;;;;;;;;;;;;;9.56;100.00;100001.59;5153677;27;19930;-49
2022/06/04 01:45:26;;;;;;;;;;;;;;;9.50;100.00;99994.78;5153585;27;19923;-50
2022/06/04 01:47:53;;;;;;;;;;;;;;;9.50;100.00;100000.25;5153521;27;19929;-51
2022/06/04 01:50:21;;;;;;;;;;;;;;;9.53;100.00;99986.69;5153697;27;19923;-47
2022/06/04 01:52:49;;;;;;;;;;;;;;;9.55;100.00;99987.13;5153446;27;20327;-49
2022/06/04 01:55:16;;;;;;;;;;;;;;;9.56;100.00;99993.41;5153425;27;19922;-50
2022/06/04 01:57:45;;;;;;;;;;;;;;;9.53;100.00;99991.31;5153429;27;20409;-48
2022/06/04 02:00:15;;;;;;;;;;;;;;;9.56;100.00;99987.91;5153239;27;20414;-50
2022/06/04 02:02:45;;;;;;;;;;;;;;;9.58;100.00;99983.72;5153701;27;19978;-48
2022/06/04 02:05:14;;;;;;;;;;;;;;;9.57;100.00;99981.31;5153534;27;19923;-47
2022/06/04 02:07:43;;;;;;;;;;;;;;;9.63;100.00;99990.94;5153523;27;19975;-51
2022/06/04 02:10:11;;;;;;;;;;;;;;;9.65;100.00;99994.91;5153225;27;19923;-49
2022/06/04 02:12:39;;;;;;;;;;;;;;;9.68;100.00;100004.38;5153350;27;20275;-48
2022/06/04 02:15:06;;;;;;;;;;;;;;;9.73;100.00;100003.38;5152998;27;19927;-46
2022/06/04 02:17:33;;;;;;;;;;;;;;;9.74;100.00;100002.25;5153080;27;20413;-49
2022/06/04 02:19:59;;;;;;;;;;;;;;;9.78;100.00;100006.69;5152924;27;20302;-48
2022/06/04 02:22:25;;;;;;;;;;;;;;;9.96;100.00;100009.22;5153067;27;19930;-51
2022/06/04 02:24:51;;;;;;;;;;;;;;;10.40;100.00;100006.81;5153002;27;19927;-50
2022/06/04 02:27:17;;;;;;;;;;;;;;;10.77;100.00;100041.28;5152950;27;19923;-49
2022/06/04 02:29:43;;;;;;;;;;;;;;;11.14;100.00;100071.41;5153072;27;20409;-50
2022/06/04 02:32:15;;;;;;;;;;;;;;;11.48;100.00;100135.13;5153363;27;20388;-47
2022/06/04 02:34:46;;;;;;;;;;;;;;;11.75;100.00;100196.75;5152913;27;19926;-51
2022/06/04 02:37:16;;;;;;;;;;;;;;;11.92;100.00;100242.41;5152655;27;19929;-50
2022/06/04 02:39:45;;;;;;;;;;;;;;;12.23;100.00;100266.50;5152658;27;19923;-47
2022/06/04 02:42:14;;;;;;;;;;;;;;;12.38;100.00;100273.19;5152653;27;20018;-51
2022/06/04 02:44:44;;;;;;;;;;;;;;;12.66;100.00;100264.91;5152901;27;20454;-51
2022/06/04 02:47:13;;;;;;;;;;;;;;;12.97;100.00;100233.09;5152671;27;20024;-49
2022/06/04 02:49:42;;;;;;;;;;;;;;;13.41;100.00;100178.72;5152906;27;19987;-47
2022/06/04 02:52:11;;;;;;;;;;;;;;;13.42;100.00;100095.72;5152544;27;19923;-48
2022/06/04 02:54:39;;;;;;;;;;;;;;;13.80;100.00;100022.50;5152473;27;20017;-48
2022/06/04 02:57:06;;;;;;;;;;;;;;;14.04;100.00;99927.59;5152306;27;20412;-49
2022/06/04 02:59:34;;;;;;;;;;;;;;;14.21;100.00;99871.13;5152467;27;19923;-49
2022/06/04 03:02:01;;;;;;;;;;;;;;;14.57;100.00;99775.88;5152462;27;19926;-48
2022/06/04 03:04:28;;;;;;;;;;;;;;;14.78;100.00;99694.47;5152526;27;20335;-48
2022/06/04 03:06:54;;;;;;;;;;;;;;;14.94;100.00;99589.31;5152474;27;19922;-47
2022/06/04 03:09:21;;;;;;;;;;;;;;;15.15;100.00;99530.66;5152101;27;20305;-48
2022/06/04 03:11:48;;;;;;;;;;;;;;;15.48;100.00;99474.38;5152541;27;19951;-47
2022/06/04 03:14:14;;;;;;;;;;;;;;;15.73;100.00;99395.13;5152164;27;20293;-48
2022/06/04 03:16:42;;;;;;;;;;;;;;;15.97;100.00;99316.13;5152184;27;19929;-47
2022/06/04 03:19:09;;;;;;;;;;;;;;;16.15;100.00;99216.50;5151378;27;19969;-47
2022/06/04 03:21:35;;;;;;;;;;;;;;;16.39;100.00;99129.06;5152000;27;19922;-47
2022/06/04 03:24:01;;;;;;;;;;;;;;;16.69;100.00;99099.97;5151969;27;20087;-47
2022/06/04 03:26:27;;;;;;;;;;;;;;;16.76;100.00;99003.09;5152233;27;19923;-47
2022/06/04 03:28:53;;;;;;;;;;;;;;;16.84;100.00;98987.97;5152204;27;19955;-47
2022/06/04 03:31:19;;;;;;;;;;;;;;;17.23;100.00;98949.94;5152040;27;19923;-48
2022/06/04 03:33:45;;;;;;;;;;;;;;;17.09;100.00;98940.63;5152474;27;19930;-47
2022/06/04 03:36:11;;;;;;;;;;;;;;;17.46;100.00;98918.75;5152024;27;20390;-47
2022/06/04 03:38:37;;;;;;;;;;;;;;;17.81;100.00;98917.50;5152128;27;19945;-47
2022/06/04 03:41:03;;;;;;;;;;;;;;;17.95;100.00;98914.47;5151649;27;20370;-47
2022/06/04 03:43:30;;;;;;;;;;;;;;;18.35;100.00;98873.75;5151841;27;19929;-48
2022/06/04 03:45:56;;;;;;;;;;;;;;;18.42;100.00;98830.44;5151740;27;20401;-47
2022/06/04 03:48:22;;;;;;;;;;;;;;;18.73;100.00;98850.50;5151634;27;19975;-47
2022/06/04 03:50:48;;;;;;;;;;;;;;;19.07;100.00;98802.16;5151733;27;20389;-48
2022/06/04 03:53:14;;;;;;;;;;;;;;;19.19;100.00;98804.25;5151503;27;19930;-51
2022/06/04 03:55:40;;;;;;;;;;;;;;;19.45;100.00;98783.78;5151873;27;20279;-50
2022/06/04 03:58:06;;;;;;;;;;;;;;;19.80;100.00;98764.69;5151630;27;19922;-51
2022/06/04 04:00:34;;;;;;;;;;;;;;;19.82;100.00;98761.47;5151644;27;19971;-50
2022/06/04 04:03:01;;;;;;;;;;;;;;;19.97;100.00;98755.09;5151441;27;19944;-51
2022/06/04 04:05:29;;;;;;;;;;;;;;;20.16;100.00;98741.47;5151700;27;19927;-49
2022/06/04 04:07:55;;;;;;;;;;;;;;;20.32;100.00;98735.06;5151391;27;19931;-51
2022/06/04 04:10:22;;;;;;;;;;;;;;;20.62;100.00;98728.25;5151619;27;19927;-51
2022/06/04 04:12:48;;;;;;;;;;;;;;;21.49;100.00;98729.91;5151481;27;19923;-49
2022/06/04 04:15:14;;;;;;;;;;;;;;;21.38;100.00;98724.69;5151479;27;19945;-51
2022/06/04 04:17:42;;;;;;;;;;;;;;;21.30;100.00;98728.94;5151381;27;20170;-51
2022/06/04 04:20:10;;;;;;;;;;;;;;;21.64;100.00;98724.66;5151133;27;20305;-51
2022/06/04 04:22:36;;;;;;;;;;;;;;;22.09;100.00;98727.03;5151284;27;19923;-51
2022/06/04 04:25:02;;;;;;;;;;;;;;;22.36;100.00;98731.28;5151390;27;20827;-51
2022/06/04 04:27:28;;;;;;;;;;;;;;;22.43;100.00;98737.41;5151510;27;19923;-51
2022/06/04 04:29:54;;;;;;;;;;;;;;;22.48;100.00;98752.78;5153397;27;19923;-52
2022/06/04 04:32:20;;;;;;;;;;;;;;;23.01;100.00;98744.41;5154842;27;19923;-49
2022/06/04 04:34:47;;;;;;;;;;;;;;;23.20;100.00;98770.44;5154594;27;20390;-53
2022/06/04 04:37:12;;;;;;;;;;;;;;;23.09;100.00;98809.19;5154925;27;19937;-52
2022/06/04 04:39:39;;;;;;;;;;;;;;;23.07;100.00;98783.72;5154676;27;19923;-52
2022/06/04 04:42:06;;;;;;;;;;;;;;;22.87;100.00;98781.28;5154783;27;19946;-49
2022/06/04 04:44:32;;;;;;;;;;;;;;;22.91;100.00;98785.47;5154585;27;19991;-50
2022/06/04 04:46:58;;;;;;;;;;;;;;;22.62;100.00;98782.97;5154475;27;20370;-51
2022/06/04 04:49:24;;;;;;;;;;;;;;;22.69;100.00;98787.50;5154303;27;19922;-51
2022/06/04 04:51:50;;;;;;;;;;;;;;;23.35;100.00;98815.38;5154808;27;19939;-50
2022/06/04 04:54:17;;;;;;;;;;;;;;;23.12;100.00;98825.06;5154788;27;19922;-48
2022/06/04 04:56:43;;;;;;;;;;;;;;;23.59;100.00;98822.00;5154727;27;19922;-49
2022/06/04 04:59:10;;;;;;;;;;;;;;;23.70;100.00;98933.53;5154497;27;20464;-49
2022/06/04 05:01:35;;;;;;;;;;;;;;;24.29;100.00;98914.75;5154531;27;19979;-49
2022/06/04 05:04:01;;;;;;;;;;;;;;;24.12;100.00;98897.41;5154459;27;19923;-48
2022/06/04 05:06:28;;;;;;;;;;;;;;;24.39;100.00;98932.31;5154324;27;20267;-49
2022/06/04 05:08:54;;;;;;;;;;;;;;;24.33;100.00;98965.78;5154351;27;19929;-51
2022/06/04 05:11:21;;;;;;;;;;;;;;;24.51;100.00;99006.31;5154257;27;19981;-51
2022/06/04 05:13:49;;;;;;;;;;;;;;;24.62;100.00;99045.88;5154103;27;19923;-48
2022/06/04 05:16:16;;;;;;;;;;;;;;;24.82;100.00;99079.88;5154159;27;20301;-51
2022/06/04 05:18:42;;;;;;;;;;;;;;;25.13;100.00;99103.50;5153934;27;19948;-50
2022/06/04 05:21:09;;;;;;;;;;;;;;;24.93;100.00;99118.69;5153939;27;20418;-51
2022/06/04 05:23:35;;;;;;;;;;;;;;;25.33;100.00;99096.19;5153907;27;19929;-50
2022/06/04 05:26:01;;;;;;;;;;;;;;;25.32;100.00;99097.44;5154065;27;19926;-50
2022/06/04 05:28:27;;;;;;;;;;;;;;;25.73;100.00;99098.03;5153954;27;20389;-49
2022/06/04 05:30:53;;;;;;;;;;;;;;;25.70;100.00;99112.22;5154006;27;19923;-49
2022/06/04 05:33:20;;;;;;;;;;;;;;;25.70;100.00;99098.19;5153818;27;19923;-48
2022/06/04 05:35:46;;;;;;;;;;;;;;;25.83;100.00;99134.56;5153892;27;19923;-48
2022/06/04 05:38:12;;;;;;;;;;;;;;;26.03;100.00;99151.69;5153903;27;19923;-52
2022/06/04 05:40:38;;;;;;;;;;;;;;;26.33;100.00;99118.19;5152786;27;20419;-53
2022/06/04 05:43:04;;;;;;;;;;;;;;;26.83;100.00;99172.06;5153777;27;19922;-51
2022/06/04 05:45:30;;;;;;;;;;;;;;;26.66;100.00;99183.69;5153439;27;19927;-51
2022/06/04 05:47:56;;;;;;;;;;;;;;;26.76;100.00;99187.25;5154083;27;19922;-52
2022/06/04 05:50:22;;;;;;;;;;;;;;;26.71;100.00;99207.56;5153376;27;19923;-53
2022/06/04 05:52:48;;;;;;;;;;;;;;;26.74;100.00;99227.09;5153724;27;19923;-51
2022/06/04 05:55:14;;;;;;;;;;;;;;;27.08;100.00;99196.91;5153453;27;19923;-53
2022/06/04 05:57:40;;;;;;;;;;;;;;;26.79;100.00;99191.94;5153501;27;20306;-52
2022/06/04 06:00:08;;;;;;;;;;;;;;;26.80;100.00;99196.28;5153244;27;19923;-50
2022/06/04 06:02:34;;;;;;;;;;;;;;;27.14;100.00;99208.34;5153370;27;19922;-52
2022/06/04 06:05:00;;;;;;;;;;;;;;;27.02;100.00;99198.81;5153190;27;19949;-51
2022/06/04 06:07:25;;;;;;;;;;;;;;;26.84;100.00;99182.06;5153207;27;20042;-50
2022/06/04 06:09:51;;;;;;;;;;;;;;;27.07;100.00;99211.47;5153597;27;19929;-53
2022/06/04 06:12:17;;;;;;;;;;;;;;;26.74;100.00;99201.78;5153342;27;20430;-51
2022/06/04 06:14:43;;;;;;;;;;;;;;;27.24;100.00;99209.06;5153156;27;19933;-49
2022/06/04 06:17:10;;;;;;;;;;;;;;;26.70;100.00;99223.66;5153458;27;19923;-51
2022/06/04 06:19:36;;;;;;;;;;;;;;;26.44;100.00;99188.72;5152986;27;19923;-49
2022/06/04 06:22:02;;;;;;;;;;;;;;;26.21;100.00;99168.47;5153038;27;19923;-49
2022/06/04 06:24:28;;;;;;;;;;;;;;;26.26;100.00;99165.06;5153111;27;19923;-49
2022/06/04 06:26:55;;;;;;;;;;;;;;;26.25;100.00;99171.13;5152893;27;20453;-51
2022/06/04 06:29:23;;;;;;;;;;;;;;;26.77;100.00;99183.19;5153070;27;20294;-52
2022/06/04 06:31:50;;;;;;;;;;;;;;;27.30;100.00;99176.19;5152733;27;19923;-50
2022/06/04 06:34:16;;;;;;;;;;;;;;;27.43;100.00;99216.94;5152707;27;19927;-49
2022/06/04 06:36:42;;;;;;;;;;;;;;;27.09;100.00;99211.75;5152884;27;20359;-49
2022/06/04 06:39:09;;;;;;;;;;;;;;;27.63;100.00;99201.47;5152694;27;19929;-49
2022/06/04 06:41:34;;;;;;;;;;;;;;;27.87;100.00;99215.53;5152631;27;20023;-50
2022/06/04 06:44:00;;;;;;;;;;;;;;;28.11;100.00;99235.97;5152779;27;19926;-50
2022/06/04 06:46:27;;;;;;;;;;;;;;;28.08;100.00;99228.47;5152617;27;19930;-50
2022/06/04 06:48:55;;;;;;;;;;;;;;;28.33;100.00;99203.84;5152734;27;19960;-49
2022/06/04 06:51:24;;;;;;;;;;;;;;;28.10;100.00;99240.06;5152470;27;19923;-50
2022/06/04 06:53:50;;;;;;;;;;;;;;;27.63;100.00;99235.25;5151281;27;19927;-51
2022/06/04 06:56:17;;;;;;;;;;;;;;;28.48;100.00;99223.59;5152498;27;20406;-51
2022/06/04 06:58:43;;;;;;;;;;;;;;;28.61;100.00;99238.94;5152383;27;19927;-51
2022/06/04 07:01:11;;;;;;;;;;;;;;;28.52;100.00;99230.56;5152307;27;20310;-49
2022/06/04 07:03:37;;;;;;;;;;;;;;;28.55;100.00;99223.97;5152374;27;20287;-50
2022/06/04 07:06:03;;;;;;;;;;;;;;;28.72;100.00;99243.22;5152473;27;19930;-50
2022/06/04 07:08:30;;;;;;;;;;;;;;;28.57;100.00;99215.03;5152133;27;19922;-51
2022/06/04 07:10:56;;;;;;;;;;;;;;;27.61;100.00;99226.50;5152442;27;20298;-50
2022/06/04 07:13:22;;;;;;;;;;;;;;;27.44;100.00;99209.25;5152140;27;19922;-52
2022/06/04 07:15:49;;;;;;;;;;;;;;;27.81;100.00;99218.22;5152451;27;19922;-49
2022/06/04 07:18:15;;;;;;;;;;;;;;;28.31;100.00;99229.69;5152319;27;19929;-49
2022/06/04 07:20:42;;;;;;;;;;;;;;;27.58;100.00;99210.56;5152137;27;19922;-53
2022/06/04 07:23:08;;;;;;;;;;;;;;;28.25;100.00;99217.53;5152227;27;19922;-51
2022/06/04 07:25:35;;;;;;;;;;;;;;;28.10;100.00;99222.38;5152000;27;19945;-49
2022/06/04 07:28:01;;;;;;;;;;;;;;;27.84;100.00;99251.06;5152030;27;19922;-53
2022/06/04 07:30:27;;;;;;;;;;;;;;;27.87;100.00;99250.13;5152094;27;19930;-49
2022/06/04 07:32:53;;;;;;;;;;;;;;;28.97;100.00;99262.34;5151681;27;19923;-50
2022/06/04 07:35:19;;;;;;;;;;;;;;;27.97;100.00;99261.31;5152011;27;19923;-49
2022/06/04 07:37:45;;;;;;;;;;;;;;;29.06;100.00;99247.41;5151681;27;19922;-52
2022/06/04 07:40:12;;;;;;;;;;;;;;;29.61;100.00;99257.94;5151632;27;19926;-51
2022/06/04 07:42:39;;;;;;;;;;;;;;;29.40;100.00;99268.41;5152207;27;19924;-51
2022/06/04 07:45:05;;;;;;;;;;;;;;;27.26;100.00;99251.56;5151758;27;20510;-50
2022/06/04 07:47:31;;;;;;;;;;;;;;;26.48;100.00;99237.94;5151923;27;19927;-49
2022/06/04 07:49:57;;;;;;;;;;;;;;;27.24;100.00;99232.34;5151990;27;20043;-50
2022/06/04 07:52:24;;;;;;;;;;;;;;;28.18;94.85;99290.41;5151865;27;19971;-49
2022/06/04 07:54:49;;;;;;;;;;;;;;;28.93;92.64;99292.06;5151699;27;19930;-49
2022/06/04 07:57:15;;;;;;;;;;;;;;;28.96;99.34;99274.16;5151513;27;19923;-49
2022/06/04 07:59:43;;;;;;;;;;;;;;;28.19;95.88;99287.13;5151440;27;19922;-49
2022/06/04 08:02:09;;;;;;;;;;;;;;;27.85;100.00;99265.94;5151494;27;19929;-49
2022/06/04 08:04:35;;;;;;;;;;;;;;;28.84;100.00;99265.50;5153425;27;19923;-51
2022/06/04 08:07:04;;;;;;;;;;;;;;;27.79;100.00;99270.66;5155230;27;20394;-49
2022/06/04 08:09:30;;;;;;;;;;;;;;;28.84;100.00;99244.97;5155418;27;19969;-49
2022/06/04 08:11:56;;;;;;;;;;;;;;;29.18;99.60;99268.88;5155032;27;19923;-53
2022/06/04 08:14:23;;;;;;;;;;;;;;;28.61;100.00;99255.88;5155182;27;19967;-52
2022/06/04 08:16:52;;;;;;;;;;;;;;;27.62;100.00;99233.69;5155178;27;19993;-50
2022/06/04 08:19:18;;;;;;;;;;;;;;;26.68;100.00;99212.09;5154935;27;19923;-51
2022/06/04 08:21:44;;;;;;;;;;;;;;;25.87;100.00;99185.72;5154911;27;19929;-52
2022/06/04 08:24:10;;;;;;;;;;;;;;;25.53;100.00;99207.19;5154842;27;20316;-51
2022/06/04 08:26:36;;;;;;;;;;;;;;;26.75;100.00;99208.94;5154909;27;19923;-51
2022/06/04 08:29:02;;;;;;;;;;;;;;;27.54;100.00;99212.78;5154908;27;20441;-51
2022/06/04 08:31:29;;;;;;;;;;;;;;;28.39;100.00;99224.47;5154893;27;19922;-52
2022/06/04 08:33:56;;;;;;;;;;;;;;;29.29;100.00;99240.81;5154839;27;20021;-52
2022/06/04 08:36:22;;;;;;;;;;;;;;;27.98;100.00;99240.31;5154858;27;19923;-50
2022/06/04 08:38:48;;;;;;;;;;;;;;;26.87;100.00;99248.59;5154606;27;19923;-50
2022/06/04 08:41:32;;;;;;;;;;;;;;;28.53;100.00;99232.16;5154839;27;19923;-51
2022/06/04 08:44:02;;;;;;;;;;;;;;;29.20;100.00;99238.09;5154499;27;19923;-51
2022/06/04 08:46:31;;;;;;;;;;;;;;;29.08;100.00;99230.72;5154595;27;19923;-50
2022/06/04 08:49:00;;;;;;;;;;;;;;;27.99;100.00;99193.97;5154385;27;19923;-52
2022/06/04 08:51:28;;;;;;;;;;;;;;;27.37;100.00;99185.06;5154335;27;19929;-52
2022/06/04 08:53:55;;;;;;;;;;;;;;;26.67;100.00;99145.88;5154508;27;19976;-51
2022/06/04 08:59:14;;;;;;;;;;;;;;;27.57;100.00;99153.47;5154357;27;19992;-51
2022/06/04 09:01:42;;;;;;;;;;;;;;;28.40;100.00;99171.69;5154116;27;19936;-51
2022/06/04 09:04:18;;;;;;;;;;;;;;;28.23;100.00;99217.25;5154621;27;19923;-50
2022/06/04 09:06:49;;;;;;;;;;;;;;;28.84;100.00;99228.03;5154310;27;20347;-50
2022/06/04 09:09:18;;;;;;;;;;;;;;;29.79;100.00;99220.16;5154196;27;19945;-49
2022/06/04 09:11:48;;;;;;;;;;;;;;;30.39;100.00;99218.50;5154098;27;19938;-52
2022/06/04 09:14:21;;;;;;;;;;;;;;;30.70;100.00;99222.63;5153951;27;19927;-49
2022/06/04 09:16:50;;;;;;;;;;;;;;;30.88;100.00;99208.13;5153135;27;19945;-49
2022/06/04 09:19:17;;;;;;;;;;;;;;;31.15;100.00;99211.63;5154134;27;19962;-51
2022/06/04 09:21:43;;;;;;;;;;;;;;;30.51;93.45;99242.00;5154089;27;19972;-53
2022/06/04 09:24:09;;;;;;;;;;;;;;;28.32;97.54;99227.63;5153936;27;19923;-51
2022/06/04 09:26:38;;;;;;;;;;;;;;;28.51;98.73;99233.91;5153806;27;20320;-51
2022/06/04 09:29:15;;;;;;;;;;;;;;;27.56;100.00;99188.53;5154013;27;19923;-49
2022/06/04 09:31:47;;;;;;;;;;;;;;;26.99;100.00;99157.56;5154006;27;19931;-49
2022/06/04 09:34:15;;;;;;;;;;;;;;;27.29;100.00;99157.75;5153872;27;19923;-50
2022/06/04 09:36:45;;;;;;;;;;;;;;;28.08;100.00;99160.06;5153950;27;19927;-50
2022/06/04 09:39:20;;;;;;;;;;;;;;;29.12;100.00;99135.34;5153940;27;19927;-52
2022/06/04 09:41:49;;;;;;;;;;;;;;;27.71;100.00;99201.88;5153507;27;20001;-49
2022/06/04 09:44:15;;;;;;;;;;;;;;;27.58;100.00;99171.91;5153701;27;20014;-53
2022/06/04 09:46:43;;;;;;;;;;;;;;;27.24;100.00;99159.19;5153475;27;19981;-51
2022/06/04 09:49:16;;;;;;;;;;;;;;;25.03;100.00;99162.34;5153481;27;19970;-50
2022/06/04 09:51:43;;;;;;;;;;;;;;;25.80;100.00;99130.66;5153279;27;19923;-52
2022/06/04 09:54:19;;;;;;;;;;;;;;;27.16;100.00;99125.00;5153407;27;19923;-52
2022/06/04 09:56:50;;;;;;;;;;;;;;;27.70;100.00;99150.41;5153538;27;19923;-50
2022/06/04 09:59:18;;;;;;;;;;;;;;;28.55;100.00;99156.28;5153165;27;20427;-51
2022/06/04 10:01:52;;;;;;;;;;;;;;;29.00;100.00;99142.88;5153359;27;20278;-50
2022/06/04 10:04:18;;;;;;;;;;;;;;;29.33;100.00;99183.34;5153230;27;19922;-49
2022/06/04 10:06:44;;;;;;;;;;;;;;;29.20;100.00;99164.72;5153446;27;20305;-50
2022/06/04 10:12:00;;;;;;;;;;;;;;;27.03;99.96;99199.63;5153158;27;19930;-48
2022/06/04 10:14:29;;;;;;;;;;;;;;;28.23;100.00;99157.28;5153224;27;20022;-48
2022/06/04 10:16:56;;;;;;;;;;;;;;;28.50;100.00;99153.41;5153073;27;19927;-52
2022/06/04 10:19:23;;;;;;;;;;;;;;;28.45;100.00;99152.03;5152983;27;19930;-49
2022/06/04 10:22:01;;;;;;;;;;;;;;;28.58;100.00;99143.25;5153130;27;19948;-51
2022/06/04 10:24:28;;;;;;;;;;;;;;;28.22;100.00;99141.59;5153117;27;20066;-52
2022/06/04 10:26:58;;;;;;;;;;;;;;;27.91;100.00;99137.22;5152639;27;19923;-53
2022/06/04 10:29:31;;;;;;;;;;;;;;;27.73;100.00;99143.03;5153261;27;19922;-51
2022/06/04 10:32:01;;;;;;;;;;;;;;;27.49;100.00;99110.06;5152740;27;20033;-51
2022/06/04 10:34:30;;;;;;;;;;;;;;;26.50;100.00;99116.59;5153058;27;19922;-52
2022/06/04 10:37:02;;;;;;;;;;;;;;;26.33;100.00;99104.94;5152951;27;19946;-50
2022/06/04 10:39:37;;;;;;;;;;;;;;;25.38;100.00;99128.44;5152778;27;20426;-50
2022/06/04 10:42:07;;;;;;;;;;;;;;;25.78;100.00;99099.41;5152971;27;19991;-51
2022/06/04 10:44:48;;;;;;;;;;;;;;;26.25;100.00;99110.09;5152646;27;19922;-48
2022/06/04 10:47:24;;;;;;;;;;;;;;;25.15;100.00;99098.97;5152728;27;19923;-48
2022/06/04 10:50:05;;;;;;;;;;;;;;;26.27;100.00;99101.19;5152579;27;19929;-48
2022/06/04 10:52:36;;;;;;;;;;;;;;;25.48;100.00;99075.91;5152490;27;19926;-48
2022/06/04 10:55:09;;;;;;;;;;;;;;;26.17;100.00;99063.91;5152603;27;19926;-51
2022/06/04 10:57:37;;;;;;;;;;;;;;;25.18;100.00;99047.53;5152531;27;19930;-48
2022/06/04 11:00:05;;;;;;;;;;;;;;;24.71;100.00;99059.91;5152714;27;19923;-49
2022/06/04 11:02:39;;;;;;;;;;;;;;;25.48;100.00;99047.84;5152394;27;20634;-51
2022/06/04 11:05:06;;;;;;;;;;;;;;;25.10;100.00;98990.16;5152612;27;19923;-48
2022/06/04 11:07:37;;;;;;;;;;;;;;;24.46;100.00;98995.69;5152246;27;20287;-48
2022/06/04 11:10:04;;;;;;;;;;;;;;;24.68;100.00;99007.59;5152168;27;19923;-49
2022/06/04 11:12:35;;;;;;;;;;;;;;;24.54;100.00;99036.22;5152433;27;19948;-48
2022/06/04 11:15:04;;;;;;;;;;;;;;;24.86;100.00;99052.47;5152166;27;19926;-49
2022/06/04 11:17:36;;;;;;;;;;;;;;;25.28;100.00;99040.66;5152572;27;19923;-48
2022/06/04 11:20:05;;;;;;;;;;;;;;;25.09;100.00;99041.88;5152112;27;19929;-48
2022/06/04 11:22:33;;;;;;;;;;;;;;;24.65;100.00;99012.09;5152438;27;20081;-48
2022/06/04 11:25:02;;;;;;;;;;;;;;;25.11;100.00;99012.16;5152043;27;19923;-49
2022/06/04 11:27:32;;;;;;;;;;;;;;;25.54;100.00;99018.66;5152363;27;20013;-52
2022/06/04 11:29:58;;;;;;;;;;;;;;;24.38;100.00;99009.97;5152012;27;19930;-49
2022/06/04 11:32:30;;;;;;;;;;;;;;;24.66;100.00;98982.06;5152211;27;19923;-51
2022/06/04 11:35:08;;;;;;;;;;;;;;;24.18;100.00;98976.00;5151944;27;19923;-49
2022/06/04 11:37:45;;;;;;;;;;;;;;;24.76;100.00;98978.03;5151894;27;19923;-52
2022/06/04 11:40:16;;;;;;;;;;;;;;;24.94;100.00;98954.03;5151058;27;19923;-49
2022/06/04 11:42:51;;;;;;;;;;;;;;;25.05;100.00;98959.94;5152136;27;19965;-47
2022/06/04 11:45:24;;;;;;;;;;;;;;;24.24;100.00;98956.56;5151811;27;19925;-48
2022/06/04 11:47:57;;;;;;;;;;;;;;;24.51;100.00;98964.28;5151651;27;20297;-49
2022/06/04 11:50:27;;;;;;;;;;;;;;;25.13;100.00;98938.00;5151793;27;20384;-50
2022/06/04 11:52:59;;;;;;;;;;;;;;;25.41;100.00;98936.69;5151924;27;19930;-49
2022/06/04 11:55:27;;;;;;;;;;;;;;;25.55;100.00;98978.09;5151813;27;20324;-49
2022/06/04 11:58:02;;;;;;;;;;;;;;;25.25;100.00;98993.13;5151653;27;20393;-47
2022/06/04 12:00:30;;;;;;;;;;;;;;;25.32;100.00;98981.59;5151632;27;19944;-48
2022/06/04 12:03:11;;;;;;;;;;;;;;;24.46;100.00;98971.28;5151600;27;19926;-51
2022/06/04 12:05:42;;;;;;;;;;;;;;;24.43;100.00;98977.81;5151515;27;19923;-49
2022/06/04 12:08:10;;;;;;;;;;;;;;;24.07;100.00;98968.03;5151766;27;19923;-48
2022/06/04 12:10:45;;;;;;;;;;;;;;;24.30;100.00;98935.13;5151354;27;19966;-47
2022/06/04 12:13:16;;;;;;;;;;;;;;;24.88;100.00;98940.63;5151413;27;19929;-48
2022/06/04 12:15:44;;;;;;;;;;;;;;;25.08;100.00;98920.50;5151267;27;19926;-48
2022/06/04 12:18:20;;;;;;;;;;;;;;;24.35;100.00;98914.88;5151418;27;19929;-48
2022/06/04 12:26:24;;;;;;;;;;;;;;;24.03;100.00;98936.59;5151714;27;19930;-48
2022/06/04 12:28:51;;;;;;;;;;;;;;;24.04;100.00;98952.16;5151256;27;19947;-48
2022/06/04 12:31:28;;;;;;;;;;;;;;;24.26;100.00;98943.66;5151406;27;19929;-47
2022/06/04 12:33:55;;;;;;;;;;;;;;;24.45;100.00;98960.53;5151260;27;19923;-47
2022/06/04 12:36:25;;;;;;;;;;;;;;;24.80;100.00;98933.00;5151233;27;20354;-47
2022/06/04 12:38:58;;;;;;;;;;;;;;;24.67;100.00;98933.16;5151217;27;19944;-48
2022/06/04 12:41:24;;;;;;;;;;;;;;;24.41;100.00;98922.22;5151099;27;20381;-48
2022/06/04 12:43:57;;;;;;;;;;;;;;;24.32;100.00;98913.78;5151225;27;19922;-47
2022/06/04 12:46:31;;;;;;;;;;;;;;;24.40;100.00;98908.66;5151040;27;20006;-48
2022/06/04 12:49:05;;;;;;;;;;;;;;;24.80;100.00;98902.19;5151403;27;19991;-48
2022/06/04 12:51:49;;;;;;;;;;;;;;;24.71;100.00;98919.00;5154064;27;20003;-49
2022/06/04 12:54:24;;;;;;;;;;;;;;;24.59;100.00;98909.47;5154550;27;19930;-48
2022/06/04 12:56:54;;;;;;;;;;;;;;;24.60;100.00;98919.47;5154785;27;20374;-47
2022/06/04 12:59:25;;;;;;;;;;;;;;;24.63;100.00;98896.09;5154475;27;19927;-51
2022/06/04 13:01:51;;;;;;;;;;;;;;;24.25;100.00;98911.28;5154384;27;19927;-51